Terminal Aerodrome Forecast
Issued by NWS Albany, NY

Home | Current Version | Previous Version | Text Only | Print | Product List | Glossary On
Versions: 1 2 3 4 5 6 7 8 9 10 11 12 13 14 15 16 17
331
FTUS41 KALY 221720
TAFGFL
TAF
KGFL 221720Z 2218/2318 33006KT P6SM VCSH SCT025 BKN040
      TEMPO 2218/2222 BKN025
     FM222200 33009KT P6SM SCT025 SCT250
     FM230600 32005KT P6SM FEW200
     FM231500 23004KT P6SM FEW035 FEW150=

USA.gov is the U.S. government's official web portal to all federal, state and local government web resources and services.